Værstasjon lokalisert i Sentrumsveien 49 , Siljan , Telemark , Norway : Station location Siljan , Telemark , Norway

Siden oppdateres fra en Oregon Scientific WMR 200 trådløs Værstasjon : Weatherstation Oregon Scientific WMR 200

Værprogramvare som kjøres lokalt er Weather Display 10.37s : Weatherprogram Weather Display 10.37s



Sentrumsveien Siljan  Sentrumsveien Siljan


F 32 Kikut  F 32 Kikut


Lyn radar more information blitzortung!


Rain radar more information rain snow radar


Besøk våre andre vær nettsider:

Template documentation
and downloads

And another site



Nære METAR Rapporter

Notice: A non well formed numeric value encountered in /customers/a/0/a/siljanweather.no/httpd.www/weather28/metar/wsMetarTxt.php on line 415 Warning: A non-numeric value encountered in /customers/a/0/a/siljanweather.no/httpd.www/weather28/metar/metarDisplay.php on line 166
   
ENTO - Sandefjord Torp
Oppdatert: 19-11-2019 20:20
Lett Yr, Overskyet  
Lett Yr, Overskyet  
   Vind: SSW 2.6 m/s
Vind: SSW 2.6 m/s
Temperatur: 6°C
Wind Chill: 4°C
Duggpunkt: 6°C
Luftfuktighet: 100%
Barometer: 1010 hPa
Sky Radar: Overskyet
Sikt: 8 km
Sky detaljer: Noen Skyer 1800 ft,
Overskyet 3700 ft
ENTO 191920Z 20005KT 8000 -DZ FEW018 OVC037 06/06 Q1010 TEMPO 4000 -DZ BR BKN012
ENGM - Oslo Gardermoen
Oppdatert: 19-11-2019 20:50
Lett Regn, Tåke, For det meste skyet  
Lett Regn, Tåke, For det meste skyet  
   Vind: Variabler 1 m/s
Vind: Variabler 1 m/s
Temperatur: 3°C
Duggpunkt: 3°C
Luftfuktighet: 100%
Barometer: 1009 hPa
Sky Radar: For det meste skyet
Sikt: 1 km
Sky detaljer: Noen Skyer 200 ft,
For det meste skyet 500 ft
ENGM 191950Z VRB02KT 1000 0600S R19R/1400U R01R/0900N R19L/1000D R01L/0700N -RA BR FEW002 BKN005 03/03 Q1009 TEMPO 0700 FG BKN002
ENZV - Stavanger Sola
Oppdatert: 19-11-2019 20:50
Noen Skyer  
Noen Skyer  
   Vind: Nord 1.5 m/s
Vind: Nord 1.5 m/s
Temperatur: 3°C
Wind Chill: 2°C
Duggpunkt: 0°C
Luftfuktighet: 81%
Barometer: 1013 hPa
Sky Radar: Noen Skyer
Sikt: mer enn 10 km
Sky detaljer: Noen Skyer 3000 ft
ENZV 191950Z 36003KT 9999 FEW030 03/M00 Q1013 NOSIG
ENSL - Sleipner A Plattform
Oppdatert: 19-11-2019 20:50
Noen Skyer  
Noen Skyer  
   Vind: Vest 2.6 m/s
Vind: Vest 2.6 m/s
Temperatur: 6°C
Wind Chill: 4°C
Duggpunkt: -2°C
Luftfuktighet: 57%
Barometer: 1014 hPa
Sky Radar: Noen Skyer
Sikt: 10 km
Sky detaljer: Noen Skyer 3500 ft
ENSL 191950Z AUTO 27005KT 9999NDV FEW035/// 06/M02 Q1014 W05/S3
VHHH - Hong Kong International Airport
Oppdatert: 19-11-2019 20:30
For det meste skyet  
For det meste skyet  
   Vind: NØ 4.6 m/s
Vind: NØ 4.6 m/s
Temperatur: 19°C
Duggpunkt: 11°C
Luftfuktighet: 60%
Barometer: 1019 hPa
Sky Radar: For det meste skyet
Sikt: mer enn 10 km
Sky detaljer: Noen Skyer 3000 ft,
For det meste skyet 3500 ft
VHHH 191930Z 05009KT 9999 FEW030 BKN035 19/11 Q1019 NOSIG
VTBS - Bangkok Suvarnabhumi
Oppdatert: 19-11-2019 20:30
Noen Skyer  
Noen Skyer  
   Vind: Øst 4.1 m/s
Vind: Øst 4.1 m/s
Temperatur: 27°C
Varme Index: 28°C
Duggpunkt: 20°C
Luftfuktighet: 66%
Barometer: 1011 hPa
Sky Radar: Noen Skyer
Sikt: mer enn 10 km
Sky detaljer: Noen Skyer 3000 ft
VTBS 191930Z 08008KT 040V110 9999 FEW030 27/20 Q1011 NOSIG
VTBU - U-Tapao International Airport
Oppdatert: 19-11-2019 20:30
Tåke, Noen Skyer  
Tåke, Noen Skyer  
   Vind: Nord 2.1 m/s
Vind: Nord 2.1 m/s
Temperatur: 24°C
Duggpunkt: 21°C
Luftfuktighet: 83%
Barometer: 1011 hPa
Sky Radar: Noen Skyer
Sikt: 5 km
Sky detaljer: Noen Skyer 2000 ft
VTBU 191930Z 01004KT 5000 BR FEW020 24/21 Q1011 NOSIG
VTUD - Udon Thani International Airport
Oppdatert: 19-11-2019 16:00
Ikke Nåværende
Klart  
Klart  
   Vind: Øst 4.1 m/s
Vind: Øst 4.1 m/s
Temperatur: 25°C
Duggpunkt: 18°C
Luftfuktighet: 65%
Barometer: 1015 hPa
Sikt: mer enn 10 km
Sky detaljer: Klart
VTUD 191500Z 09008KT CAVOK 25/18 Q1015 NOSIG
 

Script er utviklet av  Saratoga-weather.org Anpasset for malen gjennom  Weerstation Leuven

Du finner vår vær info også på:

European Weather Network

Weather Underground

HAMweather, WeatherForYou, PWS Weather

Utstyr vi bruker:

Vær-stasjon
Oregon Scientific WMR 200

Vær-programmet
Weather Display

Vær-server
Gigabyte Brix

Leverandør
Onecom

Oregon Scientific WMR 200

Weather Display

Gigabyte Brix

Onecom



Værstasjon lokalisert i Sentrumsveien 49 , Siljan , Telemark , Norway : Station location Siljan , Telemark , Norway

Siden oppdateres fra en Oregon Scientific WMR 200 trådløs Værstasjon : Weatherstation Oregon Scientific WMR 200

Værprogramvare som kjøres lokalt er Weather Display 10.37s : Weatherprogram Weather Display 10.37s